sensor_id;sensor_type;location;lat;lon;timestamp;P1;durP1;ratioP1;P2;durP2;ratioP2
20478;SDS011;10398;52.490;13.434;2022-09-01T00:01:03;1.75;;;0.68;;
20478;SDS011;10398;52.490;13.434;2022-09-01T00:03:34;2.58;;;1.23;;
20478;SDS011;10398;52.490;13.434;2022-09-01T00:06:01;1.00;;;0.60;;
20478;SDS011;10398;52.490;13.434;2022-09-01T00:08:28;4.20;;;0.80;;
20478;SDS011;10398;52.490;13.434;2022-09-01T00:10:53;2.08;;;0.70;;
20478;SDS011;10398;52.490;13.434;2022-09-01T00:13:19;2.70;;;0.70;;
20478;SDS011;10398;52.490;13.434;2022-09-01T00:15:45;3.65;;;0.60;;
20478;SDS011;10398;52.490;13.434;2022-09-01T00:18:11;2.08;;;0.70;;
20478;SDS011;10398;52.490;13.434;2022-09-01T00:20:37;2.50;;;0.88;;
20478;SDS011;10398;52.490;13.434;2022-09-01T00:23:03;2.88;;;0.82;;
20478;SDS011;10398;52.490;13.434;2022-09-01T00:25:28;1.77;;;0.60;;
20478;SDS011;10398;52.490;13.434;2022-09-01T00:27:54;0.90;;;0.50;;
20478;SDS011;10398;52.490;13.434;2022-09-01T00:30:24;1.42;;;0.50;;
20478;SDS011;10398;52.490;13.434;2022-09-01T00:32:50;2.30;;;0.60;;
20478;SDS011;10398;52.490;13.434;2022-09-01T00:35:16;3.20;;;0.70;;
20478;SDS011;10398;52.490;13.434;2022-09-01T00:37:43;2.05;;;0.50;;
20478;SDS011;10398;52.490;13.434;2022-09-01T00:40:09;1.88;;;0.55;;
20478;SDS011;10398;52.490;13.434;2022-09-01T00:42:37;1.77;;;0.50;;
20478;SDS011;10398;52.490;13.434;2022-09-01T00:45:04;1.35;;;0.50;;
20478;SDS011;10398;52.490;13.434;2022-09-01T00:47:32;1.10;;;0.47;;
20478;SDS011;10398;52.490;13.434;2022-09-01T00:49:59;0.60;;;0.40;;
20478;SDS011;10398;52.490;13.434;2022-09-01T00:52:30;1.10;;;0.47;;
20478;SDS011;10398;52.490;13.434;2022-09-01T00:55:00;2.53;;;0.40;;
20478;SDS011;10398;52.490;13.434;2022-09-01T00:57:31;0.90;;;0.32;;
20478;SDS011;10398;52.490;13.434;2022-09-01T01:00:06;1.55;;;0.40;;
20478;SDS011;10398;52.490;13.434;2022-09-01T01:02:41;1.23;;;0.57;;
20478;SDS011;10398;52.490;13.434;2022-09-01T01:05:09;1.20;;;0.38;;
20478;SDS011;10398;52.490;13.434;2022-09-01T01:07:36;1.67;;;0.50;;
20478;SDS011;10398;52.490;13.434;2022-09-01T01:10:09;1.67;;;0.80;;
20478;SDS011;10398;52.490;13.434;2022-09-01T01:12:37;3.42;;;1.13;;
20478;SDS011;10398;52.490;13.434;2022-09-01T01:15:05;2.83;;;0.82;;
20478;SDS011;10398;52.490;13.434;2022-09-01T01:17:32;3.40;;;0.93;;
20478;SDS011;10398;52.490;13.434;2022-09-01T01:19:58;1.63;;;0.47;;
20478;SDS011;10398;52.490;13.434;2022-09-01T01:22:49;1.23;;;0.57;;
20478;SDS011;10398;52.490;13.434;2022-09-01T01:25:27;2.50;;;0.40;;
20478;SDS011;10398;52.490;13.434;2022-09-01T01:28:05;1.20;;;0.60;;
20478;SDS011;10398;52.490;13.434;2022-09-01T01:30:34;0.80;;;0.47;;
20478;SDS011;10398;52.490;13.434;2022-09-01T01:33:03;1.13;;;0.50;;
20478;SDS011;10398;52.490;13.434;2022-09-01T01:35:30;2.33;;;0.35;;
20478;SDS011;10398;52.490;13.434;2022-09-01T01:37:58;1.10;;;0.47;;
20478;SDS011;10398;52.490;13.434;2022-09-01T01:40:26;2.55;;;0.70;;
20478;SDS011;10398;52.490;13.434;2022-09-01T01:42:54;1.08;;;0.50;;
20478;SDS011;10398;52.490;13.434;2022-09-01T01:45:22;1.27;;;0.40;;
20478;SDS011;10398;52.490;13.434;2022-09-01T01:47:50;3.13;;;0.50;;
20478;SDS011;10398;52.490;13.434;2022-09-01T01:50:36;1.02;;;0.40;;
20478;SDS011;10398;52.490;13.434;2022-09-01T01:53:02;1.27;;;0.38;;
20478;SDS011;10398;52.490;13.434;2022-09-01T01:55:30;2.65;;;0.60;;
20478;SDS011;10398;52.490;13.434;2022-09-01T01:57:56;2.22;;;0.73;;
20478;SDS011;10398;52.490;13.434;2022-09-01T02:00:28;1.85;;;0.50;;
20478;SDS011;10398;52.490;13.434;2022-09-01T02:02:56;0.88;;;0.40;;
20478;SDS011;10398;52.490;13.434;2022-09-01T02:05:24;1.60;;;0.55;;
20478;SDS011;10398;52.490;13.434;2022-09-01T02:07:56;2.35;;;0.57;;
20478;SDS011;10398;52.490;13.434;2022-09-01T02:10:25;1.45;;;0.50;;
20478;SDS011;10398;52.490;13.434;2022-09-01T02:12:51;1.45;;;0.35;;
20478;SDS011;10398;52.490;13.434;2022-09-01T02:15:17;0.90;;;0.40;;
20478;SDS011;10398;52.490;13.434;2022-09-01T02:17:44;3.17;;;0.70;;
20478;SDS011;10398;52.490;13.434;2022-09-01T02:20:10;1.75;;;0.45;;
20478;SDS011;10398;52.490;13.434;2022-09-01T02:22:35;1.05;;;0.47;;
20478;SDS011;10398;52.490;13.434;2022-09-01T02:25:04;1.40;;;0.50;;
20478;SDS011;10398;52.490;13.434;2022-09-01T02:27:30;0.82;;;0.35;;
20478;SDS011;10398;52.490;13.434;2022-09-01T02:30:00;0.93;;;0.30;;
20478;SDS011;10398;52.490;13.434;2022-09-01T02:32:27;3.75;;;0.73;;
20478;SDS011;10398;52.490;13.434;2022-09-01T02:34:53;1.02;;;0.30;;
20478;SDS011;10398;52.490;13.434;2022-09-01T02:37:25;1.00;;;0.60;;
20478;SDS011;10398;52.490;13.434;2022-09-01T02:39:51;1.42;;;0.60;;
20478;SDS011;10398;52.490;13.434;2022-09-01T02:42:23;1.33;;;0.50;;
20478;SDS011;10398;52.490;13.434;2022-09-01T02:44:51;2.03;;;0.50;;
20478;SDS011;10398;52.490;13.434;2022-09-01T02:47:21;2.20;;;0.70;;
20478;SDS011;10398;52.490;13.434;2022-09-01T02:49:48;3.67;;;0.70;;
20478;SDS011;10398;52.490;13.434;2022-09-01T02:52:17;0.75;;;0.45;;
20478;SDS011;10398;52.490;13.434;2022-09-01T02:54:44;1.55;;;0.50;;
20478;SDS011;10398;52.490;13.434;2022-09-01T02:57:14;1.48;;;0.52;;
20478;SDS011;10398;52.490;13.434;2022-09-01T02:59:40;1.45;;;0.55;;
20478;SDS011;10398;52.490;13.434;2022-09-01T03:02:07;1.52;;;0.40;;
20478;SDS011;10398;52.490;13.434;2022-09-01T03:04:34;1.35;;;0.32;;
20478;SDS011;10398;52.490;13.434;2022-09-01T03:07:03;3.05;;;0.70;;
20478;SDS011;10398;52.490;13.434;2022-09-01T03:09:30;2.28;;;0.50;;
20478;SDS011;10398;52.490;13.434;2022-09-01T03:11:56;1.00;;;0.50;;
20478;SDS011;10398;52.490;13.434;2022-09-01T03:14:22;2.05;;;0.52;;
20478;SDS011;10398;52.490;13.434;2022-09-01T03:16:48;1.10;;;0.50;;
20478;SDS011;10398;52.490;13.434;2022-09-01T03:19:14;0.90;;;0.28;;
20478;SDS011;10398;52.490;13.434;2022-09-01T03:21:41;2.47;;;0.30;;
20478;SDS011;10398;52.490;13.434;2022-09-01T03:24:09;1.77;;;0.50;;
20478;SDS011;10398;52.490;13.434;2022-09-01T03:26:39;0.82;;;0.43;;
20478;SDS011;10398;52.490;13.434;2022-09-01T03:29:06;1.70;;;0.50;;
20478;SDS011;10398;52.490;13.434;2022-09-01T03:31:32;0.67;;;0.40;;
20478;SDS011;10398;52.490;13.434;2022-09-01T03:33:59;0.47;;;0.40;;
20478;SDS011;10398;52.490;13.434;2022-09-01T03:36:28;1.17;;;0.50;;
20478;SDS011;10398;52.490;13.434;2022-09-01T03:38:58;2.20;;;0.60;;
20478;SDS011;10398;52.490;13.434;2022-09-01T03:41:26;2.33;;;0.73;;
20478;SDS011;10398;52.490;13.434;2022-09-01T03:43:54;2.30;;;0.77;;
20478;SDS011;10398;52.490;13.434;2022-09-01T03:46:23;1.50;;;0.60;;
20478;SDS011;10398;52.490;13.434;2022-09-01T03:48:51;1.33;;;0.40;;
20478;SDS011;10398;52.490;13.434;2022-09-01T03:51:19;1.53;;;0.60;;
20478;SDS011;10398;52.490;13.434;2022-09-01T03:53:46;5.50;;;1.10;;
20478;SDS011;10398;52.490;13.434;2022-09-01T03:56:12;3.47;;;0.70;;
20478;SDS011;10398;52.490;13.434;2022-09-01T03:58:39;2.20;;;0.50;;
20478;SDS011;10398;52.490;13.434;2022-09-01T04:01:11;1.43;;;0.60;;
20478;SDS011;10398;52.490;13.434;2022-09-01T04:03:37;1.83;;;0.70;;
20478;SDS011;10398;52.490;13.434;2022-09-01T04:06:06;2.30;;;0.70;;
20478;SDS011;10398;52.490;13.434;2022-09-01T04:08:33;1.50;;;0.63;;
20478;SDS011;10398;52.490;13.434;2022-09-01T04:11:00;1.07;;;0.50;;
20478;SDS011;10398;52.490;13.434;2022-09-01T04:13:37;1.80;;;0.50;;
20478;SDS011;10398;52.490;13.434;2022-09-01T04:16:05;2.93;;;0.70;;
20478;SDS011;10398;52.490;13.434;2022-09-01T04:19:01;1.13;;;0.60;;
20478;SDS011;10398;52.490;13.434;2022-09-01T04:21:39;4.17;;;0.70;;
20478;SDS011;10398;52.490;13.434;2022-09-01T04:24:05;3.10;;;0.77;;
20478;SDS011;10398;52.490;13.434;2022-09-01T04:26:33;1.30;;;0.70;;
20478;SDS011;10398;52.490;13.434;2022-09-01T04:28:58;1.13;;;0.50;;
20478;SDS011;10398;52.490;13.434;2022-09-01T04:31:25;1.67;;;0.67;;
20478;SDS011;10398;52.490;13.434;2022-09-01T04:33:51;2.40;;;0.80;;
20478;SDS011;10398;52.490;13.434;2022-09-01T04:36:28;1.90;;;0.80;;
20478;SDS011;10398;52.490;13.434;2022-09-01T04:39:01;5.63;;;0.60;;
20478;SDS011;10398;52.490;13.434;2022-09-01T04:41:33;1.50;;;0.77;;
20478;SDS011;10398;52.490;13.434;2022-09-01T04:44:01;3.27;;;0.80;;
20478;SDS011;10398;52.490;13.434;2022-09-01T04:46:29;2.77;;;0.80;;
20478;SDS011;10398;52.490;13.434;2022-09-01T04:48:59;4.40;;;1.00;;
20478;SDS011;10398;52.490;13.434;2022-09-01T04:51:41;3.83;;;0.77;;
20478;SDS011;10398;52.490;13.434;2022-09-01T04:54:09;2.40;;;0.70;;
20478;SDS011;10398;52.490;13.434;2022-09-01T04:56:39;1.47;;;0.77;;
20478;SDS011;10398;52.490;13.434;2022-09-01T04:59:06;4.30;;;1.40;;
20478;SDS011;10398;52.490;13.434;2022-09-01T05:01:35;3.47;;;1.27;;
20478;SDS011;10398;52.490;13.434;2022-09-01T05:04:17;6.90;;;2.77;;
20478;SDS011;10398;52.490;13.434;2022-09-01T05:06:51;6.40;;;1.43;;
20478;SDS011;10398;52.490;13.434;2022-09-01T05:09:25;3.17;;;0.87;;
20478;SDS011;10398;52.490;13.434;2022-09-01T05:11:56;2.30;;;0.90;;
20478;SDS011;10398;52.490;13.434;2022-09-01T05:14:36;2.47;;;0.77;;
20478;SDS011;10398;52.490;13.434;2022-09-01T05:17:06;1.80;;;0.87;;
20478;SDS011;10398;52.490;13.434;2022-09-01T05:19:40;4.67;;;0.93;;
20478;SDS011;10398;52.490;13.434;2022-09-01T05:22:08;5.57;;;0.90;;
20478;SDS011;10398;52.490;13.434;2022-09-01T05:24:35;4.10;;;1.10;;
20478;SDS011;10398;52.490;13.434;2022-09-01T05:27:03;7.93;;;1.13;;
20478;SDS011;10398;52.490;13.434;2022-09-01T05:29:30;2.50;;;0.80;;
20478;SDS011;10398;52.490;13.434;2022-09-01T05:31:55;1.80;;;0.67;;
20478;SDS011;10398;52.490;13.434;2022-09-01T05:34:22;2.60;;;0.80;;
20478;SDS011;10398;52.490;13.434;2022-09-01T05:36:57;5.20;;;0.70;;
20478;SDS011;10398;52.490;13.434;2022-09-01T05:39:25;2.23;;;0.60;;
20478;SDS011;10398;52.490;13.434;2022-09-01T05:41:51;2.30;;;1.03;;
20478;SDS011;10398;52.490;13.434;2022-09-01T05:44:18;2.60;;;1.00;;
20478;SDS011;10398;52.490;13.434;2022-09-01T05:46:47;2.17;;;0.80;;
20478;SDS011;10398;52.490;13.434;2022-09-01T05:49:13;3.97;;;0.90;;
20478;SDS011;10398;52.490;13.434;2022-09-01T05:51:41;1.37;;;0.73;;
20478;SDS011;10398;52.490;13.434;2022-09-01T05:54:09;2.23;;;0.87;;
20478;SDS011;10398;52.490;13.434;2022-09-01T05:56:36;2.30;;;0.87;;
20478;SDS011;10398;52.490;13.434;2022-09-01T05:59:04;5.70;;;1.90;;
20478;SDS011;10398;52.490;13.434;2022-09-01T06:01:30;5.03;;;2.07;;
20478;SDS011;10398;52.490;13.434;2022-09-01T06:03:57;2.73;;;1.00;;
20478;SDS011;10398;52.490;13.434;2022-09-01T06:06:28;1.93;;;0.77;;
20478;SDS011;10398;52.490;13.434;2022-09-01T06:08:59;6.63;;;0.97;;
20478;SDS011;10398;52.490;13.434;2022-09-01T06:11:26;6.97;;;2.20;;
20478;SDS011;10398;52.490;13.434;2022-09-01T06:13:52;5.63;;;1.10;;
20478;SDS011;10398;52.490;13.434;2022-09-01T06:16:19;2.50;;;0.80;;
20478;SDS011;10398;52.490;13.434;2022-09-01T06:18:46;2.20;;;0.80;;
20478;SDS011;10398;52.490;13.434;2022-09-01T06:21:11;3.23;;;0.97;;
20478;SDS011;10398;52.490;13.434;2022-09-01T06:23:42;6.70;;;3.20;;
20478;SDS011;10398;52.490;13.434;2022-09-01T06:26:17;6.60;;;2.27;;
20478;SDS011;10398;52.490;13.434;2022-09-01T06:28:58;1.80;;;1.00;;
20478;SDS011;10398;52.490;13.434;2022-09-01T06:31:28;5.80;;;1.50;;
20478;SDS011;10398;52.490;13.434;2022-09-01T06:33:59;6.60;;;2.00;;
20478;SDS011;10398;52.490;13.434;2022-09-01T06:36:27;3.70;;;1.30;;
20478;SDS011;10398;52.490;13.434;2022-09-01T06:38:56;2.13;;;0.90;;
20478;SDS011;10398;52.490;13.434;2022-09-01T06:41:25;7.33;;;1.03;;
20478;SDS011;10398;52.490;13.434;2022-09-01T06:43:52;3.37;;;0.97;;
20478;SDS011;10398;52.490;13.434;2022-09-01T06:46:22;1.97;;;0.60;;
20478;SDS011;10398;52.490;13.434;2022-09-01T06:48:51;1.47;;;0.60;;
20478;SDS011;10398;52.490;13.434;2022-09-01T06:51:18;6.03;;;0.87;;
20478;SDS011;10398;52.490;13.434;2022-09-01T06:53:46;1.77;;;0.70;;
20478;SDS011;10398;52.490;13.434;2022-09-01T06:56:24;1.30;;;0.57;;
20478;SDS011;10398;52.490;13.434;2022-09-01T06:58:54;2.47;;;0.73;;
20478;SDS011;10398;52.490;13.434;2022-09-01T07:01:20;2.67;;;0.80;;
20478;SDS011;10398;52.490;13.434;2022-09-01T07:03:48;2.27;;;0.77;;
20478;SDS011;10398;52.490;13.434;2022-09-01T07:06:16;1.90;;;0.90;;
20478;SDS011;10398;52.490;13.434;2022-09-01T07:08:44;4.80;;;0.77;;
20478;SDS011;10398;52.490;13.434;2022-09-01T07:11:18;5.38;;;0.85;;
20478;SDS011;10398;52.490;13.434;2022-09-01T07:13:49;4.37;;;0.70;;
20478;SDS011;10398;52.490;13.434;2022-09-01T07:16:18;6.57;;;0.70;;
20478;SDS011;10398;52.490;13.434;2022-09-01T07:18:47;4.67;;;0.70;;
20478;SDS011;10398;52.490;13.434;2022-09-01T07:21:13;1.87;;;1.03;;
20478;SDS011;10398;52.490;13.434;2022-09-01T07:23:39;4.40;;;1.00;;
20478;SDS011;10398;52.490;13.434;2022-09-01T07:26:07;5.40;;;1.17;;
20478;SDS011;10398;52.490;13.434;2022-09-01T07:28:34;6.83;;;1.47;;
20478;SDS011;10398;52.490;13.434;2022-09-01T07:31:00;5.20;;;1.60;;
20478;SDS011;10398;52.490;13.434;2022-09-01T07:33:28;3.35;;;0.70;;
20478;SDS011;10398;52.490;13.434;2022-09-01T07:35:55;5.60;;;0.82;;
20478;SDS011;10398;52.490;13.434;2022-09-01T07:38:22;3.90;;;1.00;;
20478;SDS011;10398;52.490;13.434;2022-09-01T07:40:49;2.60;;;0.90;;
20478;SDS011;10398;52.490;13.434;2022-09-01T07:43:19;1.77;;;0.68;;
20478;SDS011;10398;52.490;13.434;2022-09-01T07:45:49;4.78;;;0.80;;
20478;SDS011;10398;52.490;13.434;2022-09-01T07:48:19;4.90;;;1.27;;
20478;SDS011;10398;52.490;13.434;2022-09-01T07:50:47;2.53;;;0.80;;
20478;SDS011;10398;52.490;13.434;2022-09-01T07:53:19;3.35;;;1.48;;
20478;SDS011;10398;52.490;13.434;2022-09-01T07:55:48;4.70;;;1.30;;
20478;SDS011;10398;52.490;13.434;2022-09-01T07:58:16;3.78;;;0.90;;
20478;SDS011;10398;52.490;13.434;2022-09-01T08:00:42;4.15;;;0.95;;
20478;SDS011;10398;52.490;13.434;2022-09-01T08:03:09;7.90;;;1.58;;
20478;SDS011;10398;52.490;13.434;2022-09-01T08:05:35;4.95;;;1.30;;
20478;SDS011;10398;52.490;13.434;2022-09-01T08:08:01;3.70;;;1.77;;
20478;SDS011;10398;52.490;13.434;2022-09-01T08:10:27;1.88;;;1.02;;
20478;SDS011;10398;52.490;13.434;2022-09-01T08:12:53;5.93;;;1.55;;
20478;SDS011;10398;52.490;13.434;2022-09-01T08:15:20;3.92;;;1.02;;
20478;SDS011;10398;52.490;13.434;2022-09-01T08:17:46;3.95;;;1.17;;
20478;SDS011;10398;52.490;13.434;2022-09-01T08:20:12;2.92;;;1.23;;
20478;SDS011;10398;52.490;13.434;2022-09-01T08:22:38;2.63;;;0.85;;
20478;SDS011;10398;52.490;13.434;2022-09-01T08:25:08;4.03;;;1.65;;
20478;SDS011;10398;52.490;13.434;2022-09-01T08:27:35;3.92;;;1.30;;
20478;SDS011;10398;52.490;13.434;2022-09-01T08:30:05;1.83;;;0.80;;
20478;SDS011;10398;52.490;13.434;2022-09-01T08:32:33;3.78;;;1.42;;
20478;SDS011;10398;52.490;13.434;2022-09-01T08:35:00;4.97;;;2.15;;
20478;SDS011;10398;52.490;13.434;2022-09-01T08:37:26;2.00;;;0.88;;
20478;SDS011;10398;52.490;13.434;2022-09-01T08:39:51;4.35;;;0.82;;
20478;SDS011;10398;52.490;13.434;2022-09-01T08:45:32;4.53;;;2.05;;
20478;SDS011;10398;52.490;13.434;2022-09-01T08:47:46;3.83;;;1.48;;
20478;SDS011;10398;52.490;13.434;2022-09-01T08:50:17;9.45;;;1.80;;
20478;SDS011;10398;52.490;13.434;2022-09-01T08:52:46;5.53;;;1.48;;
20478;SDS011;10398;52.490;13.434;2022-09-01T08:55:33;4.43;;;2.38;;
20478;SDS011;10398;52.490;13.434;2022-09-01T08:58:03;5.03;;;1.60;;
20478;SDS011;10398;52.490;13.434;2022-09-01T09:00:32;1.92;;;0.82;;
20478;SDS011;10398;52.490;13.434;2022-09-01T09:08:16;2.58;;;1.30;;
20478;SDS011;10398;52.490;13.434;2022-09-01T09:16:57;3.85;;;1.40;;
20478;SDS011;10398;52.490;13.434;2022-09-01T09:19:30;2.72;;;0.75;;
20478;SDS011;10398;52.490;13.434;2022-09-01T09:22:05;2.85;;;0.98;;
20478;SDS011;10398;52.490;13.434;2022-09-01T09:24:51;2.30;;;0.90;;
20478;SDS011;10398;52.490;13.434;2022-09-01T09:27:26;12.98;;;5.53;;
20478;SDS011;10398;52.490;13.434;2022-09-01T09:29:55;12.05;;;5.10;;
20478;SDS011;10398;52.490;13.434;2022-09-01T09:32:23;13.30;;;6.03;;
20478;SDS011;10398;52.490;13.434;2022-09-01T09:35:16;20.20;;;8.40;;
20478;SDS011;10398;52.490;13.434;2022-09-01T09:37:47;18.73;;;7.43;;
20478;SDS011;10398;52.490;13.434;2022-09-01T09:40:15;8.38;;;3.25;;
20478;SDS011;10398;52.490;13.434;2022-09-01T09:43:04;12.07;;;5.40;;
20478;SDS011;10398;52.490;13.434;2022-09-01T09:45:31;15.50;;;5.47;;
20478;SDS011;10398;52.490;13.434;2022-09-01T09:48:03;28.35;;;5.55;;
20478;SDS011;10398;52.490;13.434;2022-09-01T09:50:48;17.45;;;6.90;;
20478;SDS011;10398;52.490;13.434;2022-09-01T09:55:54;7.38;;;3.63;;
20478;SDS011;10398;52.490;13.434;2022-09-01T09:58:22;5.18;;;2.65;;
20478;SDS011;10398;52.490;13.434;2022-09-01T10:01:08;2.85;;;1.58;;
20478;SDS011;10398;52.490;13.434;2022-09-01T10:03:47;8.32;;;2.30;;
20478;SDS011;10398;52.490;13.434;2022-09-01T10:06:31;5.88;;;1.10;;
20478;SDS011;10398;52.490;13.434;2022-09-01T10:09:03;5.10;;;2.08;;
20478;SDS011;10398;52.490;13.434;2022-09-01T10:11:35;4.70;;;1.95;;
20478;SDS011;10398;52.490;13.434;2022-09-01T10:14:05;4.53;;;1.52;;
20478;SDS011;10398;52.490;13.434;2022-09-01T10:16:33;6.70;;;2.95;;
20478;SDS011;10398;52.490;13.434;2022-09-01T10:19:02;6.00;;;1.95;;
20478;SDS011;10398;52.490;13.434;2022-09-01T10:21:32;4.60;;;1.83;;
20478;SDS011;10398;52.490;13.434;2022-09-01T10:24:02;6.55;;;2.58;;
20478;SDS011;10398;52.490;13.434;2022-09-01T10:26:41;21.23;;;1.98;;
20478;SDS011;10398;52.490;13.434;2022-09-01T10:29:13;1.60;;;0.73;;
20478;SDS011;10398;52.490;13.434;2022-09-01T10:31:45;4.55;;;0.85;;
20478;SDS011;10398;52.490;13.434;2022-09-01T10:34:12;2.78;;;1.00;;
20478;SDS011;10398;52.490;13.434;2022-09-01T10:36:42;3.50;;;0.80;;
20478;SDS011;10398;52.490;13.434;2022-09-01T10:39:10;6.13;;;0.70;;
20478;SDS011;10398;52.490;13.434;2022-09-01T10:44:28;2.22;;;0.45;;
20478;SDS011;10398;52.490;13.434;2022-09-01T10:47:00;1.10;;;0.50;;
20478;SDS011;10398;52.490;13.434;2022-09-01T10:52:12;1.85;;;0.63;;
20478;SDS011;10398;52.490;13.434;2022-09-01T10:55:18;4.25;;;2.20;;
20478;SDS011;10398;52.490;13.434;2022-09-01T10:58:12;4.13;;;0.73;;
20478;SDS011;10398;52.490;13.434;2022-09-01T11:00:46;1.88;;;0.50;;
20478;SDS011;10398;52.490;13.434;2022-09-01T11:14:01;1.50;;;0.20;;
20478;SDS011;10398;52.490;13.434;2022-09-01T11:16:31;1.30;;;0.30;;
20478;SDS011;10398;52.490;13.434;2022-09-01T11:33:21;3.53;;;0.70;;
20478;SDS011;10398;52.490;13.434;2022-09-01T11:35:56;8.05;;;0.60;;
20478;SDS011;10398;52.490;13.434;2022-09-01T11:38:28;8.00;;;0.60;;
20478;SDS011;10398;52.490;13.434;2022-09-01T11:41:02;6.38;;;1.13;;
20478;SDS011;10398;52.490;13.434;2022-09-01T11:43:27;1.23;;;0.45;;
20478;SDS011;10398;52.490;13.434;2022-09-01T11:46:07;2.20;;;0.90;;
20478;SDS011;10398;52.490;13.434;2022-09-01T11:49:04;12.27;;;1.00;;
20478;SDS011;10398;52.490;13.434;2022-09-01T11:51:41;12.45;;;1.02;;
20478;SDS011;10398;52.490;13.434;2022-09-01T11:54:10;0.82;;;0.32;;
20478;SDS011;10398;52.490;13.434;2022-09-01T11:56:39;4.30;;;0.90;;
20478;SDS011;10398;52.490;13.434;2022-09-01T11:59:05;5.10;;;1.23;;
20478;SDS011;10398;52.490;13.434;2022-09-01T12:01:32;6.18;;;1.33;;
20478;SDS011;10398;52.490;13.434;2022-09-01T12:04:17;11.77;;;1.27;;
20478;SDS011;10398;52.490;13.434;2022-09-01T12:06:58;2.80;;;1.23;;
20478;SDS011;10398;52.490;13.434;2022-09-01T12:09:33;7.85;;;1.35;;
20478;SDS011;10398;52.490;13.434;2022-09-01T12:12:01;6.38;;;3.03;;
20478;SDS011;10398;52.490;13.434;2022-09-01T12:14:28;6.60;;;1.10;;
20478;SDS011;10398;52.490;13.434;2022-09-01T12:16:58;4.35;;;0.40;;
20478;SDS011;10398;52.490;13.434;2022-09-01T12:19:29;2.03;;;0.45;;
20478;SDS011;10398;52.490;13.434;2022-09-01T12:22:01;2.65;;;0.50;;
20478;SDS011;10398;52.490;13.434;2022-09-01T12:24:47;0.68;;;0.30;;
20478;SDS011;10398;52.490;13.434;2022-09-01T12:27:15;0.90;;;0.25;;
20478;SDS011;10398;52.490;13.434;2022-09-01T12:29:41;0.90;;;0.30;;
20478;SDS011;10398;52.490;13.434;2022-09-01T12:32:07;3.60;;;0.30;;
20478;SDS011;10398;52.490;13.434;2022-09-01T12:37:09;3.63;;;0.40;;
20478;SDS011;10398;52.490;13.434;2022-09-01T12:39:48;4.82;;;0.70;;
20478;SDS011;10398;52.490;13.434;2022-09-01T12:44:48;7.88;;;2.20;;
20478;SDS011;10398;52.490;13.434;2022-09-01T12:49:58;11.57;;;1.52;;
20478;SDS011;10398;52.490;13.434;2022-09-01T12:52:27;4.65;;;0.93;;
20478;SDS011;10398;52.490;13.434;2022-09-01T12:57:26;19.80;;;1.70;;
20478;SDS011;10398;52.490;13.434;2022-09-01T13:02:42;8.00;;;0.90;;
20478;SDS011;10398;52.490;13.434;2022-09-01T13:05:20;4.57;;;0.68;;
20478;SDS011;10398;52.490;13.434;2022-09-01T13:07:48;5.07;;;1.02;;
20478;SDS011;10398;52.490;13.434;2022-09-01T13:10:17;7.40;;;0.93;;
20478;SDS011;10398;52.490;13.434;2022-09-01T13:12:44;2.80;;;1.00;;
20478;SDS011;10398;52.490;13.434;2022-09-01T13:15:10;1.45;;;0.63;;
20478;SDS011;10398;52.490;13.434;2022-09-01T13:17:37;1.77;;;0.63;;
20478;SDS011;10398;52.490;13.434;2022-09-01T13:20:03;4.05;;;0.93;;
20478;SDS011;10398;52.490;13.434;2022-09-01T13:22:30;1.92;;;0.93;;
20478;SDS011;10398;52.490;13.434;2022-09-01T13:24:56;3.58;;;0.52;;
20478;SDS011;10398;52.490;13.434;2022-09-01T13:27:21;3.60;;;0.35;;
20478;SDS011;10398;52.490;13.434;2022-09-01T13:29:48;3.88;;;0.68;;
20478;SDS011;10398;52.490;13.434;2022-09-01T13:32:14;18.70;;;4.70;;
20478;SDS011;10398;52.490;13.434;2022-09-01T13:34:41;9.90;;;4.43;;
20478;SDS011;10398;52.490;13.434;2022-09-01T13:37:06;24.13;;;7.78;;
20478;SDS011;10398;52.490;13.434;2022-09-01T13:39:32;15.30;;;7.05;;
20478;SDS011;10398;52.490;13.434;2022-09-01T13:41:58;16.92;;;6.30;;
20478;SDS011;10398;52.490;13.434;2022-09-01T13:44:23;17.85;;;7.15;;
20478;SDS011;10398;52.490;13.434;2022-09-01T13:46:49;17.83;;;8.60;;
20478;SDS011;10398;52.490;13.434;2022-09-01T13:49:14;22.70;;;10.32;;
20478;SDS011;10398;52.490;13.434;2022-09-01T13:51:40;20.75;;;9.77;;
20478;SDS011;10398;52.490;13.434;2022-09-01T13:54:06;25.30;;;13.02;;
20478;SDS011;10398;52.490;13.434;2022-09-01T13:56:31;28.75;;;13.98;;
20478;SDS011;10398;52.490;13.434;2022-09-01T13:58:57;25.50;;;11.57;;
20478;SDS011;10398;52.490;13.434;2022-09-01T14:01:23;25.52;;;10.93;;
20478;SDS011;10398;52.490;13.434;2022-09-01T14:03:48;18.27;;;9.20;;
20478;SDS011;10398;52.490;13.434;2022-09-01T14:06:14;21.55;;;9.93;;
20478;SDS011;10398;52.490;13.434;2022-09-01T14:08:40;20.83;;;10.32;;
20478;SDS011;10398;52.490;13.434;2022-09-01T14:11:06;17.50;;;8.73;;
20478;SDS011;10398;52.490;13.434;2022-09-01T14:13:32;18.75;;;8.50;;
20478;SDS011;10398;52.490;13.434;2022-09-01T14:15:59;8.43;;;3.75;;
20478;SDS011;10398;52.490;13.434;2022-09-01T14:18:25;14.30;;;6.78;;
20478;SDS011;10398;52.490;13.434;2022-09-01T14:20:56;22.60;;;10.75;;
20478;SDS011;10398;52.490;13.434;2022-09-01T14:23:24;15.07;;;6.90;;
20478;SDS011;10398;52.490;13.434;2022-09-01T14:25:49;17.63;;;8.48;;
20478;SDS011;10398;52.490;13.434;2022-09-01T14:28:15;22.77;;;11.68;;
20478;SDS011;10398;52.490;13.434;2022-09-01T14:30:42;22.38;;;10.85;;
20478;SDS011;10398;52.490;13.434;2022-09-01T14:33:08;19.63;;;8.50;;
20478;SDS011;10398;52.490;13.434;2022-09-01T14:35:36;31.02;;;15.07;;
20478;SDS011;10398;52.490;13.434;2022-09-01T14:38:03;17.10;;;8.48;;
20478;SDS011;10398;52.490;13.434;2022-09-01T14:40:31;11.88;;;5.70;;
20478;SDS011;10398;52.490;13.434;2022-09-01T14:42:57;5.88;;;2.72;;
20478;SDS011;10398;52.490;13.434;2022-09-01T14:45:25;4.28;;;2.10;;
20478;SDS011;10398;52.490;13.434;2022-09-01T14:47:54;4.97;;;2.58;;
20478;SDS011;10398;52.490;13.434;2022-09-01T14:50:22;3.38;;;1.50;;
20478;SDS011;10398;52.490;13.434;2022-09-01T14:52:50;5.15;;;2.28;;
20478;SDS011;10398;52.490;13.434;2022-09-01T14:55:17;11.60;;;3.20;;
20478;SDS011;10398;52.490;13.434;2022-09-01T14:57:44;7.20;;;2.65;;
20478;SDS011;10398;52.490;13.434;2022-09-01T15:00:10;5.25;;;1.80;;
20478;SDS011;10398;52.490;13.434;2022-09-01T15:02:38;1.92;;;0.90;;
20478;SDS011;10398;52.490;13.434;2022-09-01T15:05:04;11.35;;;1.63;;
20478;SDS011;10398;52.490;13.434;2022-09-01T15:07:30;7.07;;;3.45;;
20478;SDS011;10398;52.490;13.434;2022-09-01T15:09:56;5.60;;;2.03;;
20478;SDS011;10398;52.490;13.434;2022-09-01T15:12:25;5.10;;;2.28;;
20478;SDS011;10398;52.490;13.434;2022-09-01T15:14:55;5.72;;;2.30;;
20478;SDS011;10398;52.490;13.434;2022-09-01T15:17:21;5.78;;;2.30;;
20478;SDS011;10398;52.490;13.434;2022-09-01T15:19:47;82.70;;;39.47;;
20478;SDS011;10398;52.490;13.434;2022-09-01T15:22:13;34.00;;;16.17;;
20478;SDS011;10398;52.490;13.434;2022-09-01T15:24:40;17.08;;;7.85;;
20478;SDS011;10398;52.490;13.434;2022-09-01T15:27:07;7.38;;;3.53;;
20478;SDS011;10398;52.490;13.434;2022-09-01T15:29:35;6.72;;;3.15;;
20478;SDS011;10398;52.490;13.434;2022-09-01T15:32:11;10.48;;;5.15;;
20478;SDS011;10398;52.490;13.434;2022-09-01T15:34:37;40.65;;;20.75;;
20478;SDS011;10398;52.490;13.434;2022-09-01T15:37:03;19.17;;;10.00;;
20478;SDS011;10398;52.490;13.434;2022-09-01T15:39:30;96.55;;;43.80;;
20478;SDS011;10398;52.490;13.434;2022-09-01T15:41:56;79.47;;;37.00;;
20478;SDS011;10398;52.490;13.434;2022-09-01T15:44:21;20.52;;;9.80;;